Time;durP1;ratioP1;P1;durP2;ratioP2;P2;SDS_P1;SDS_P2;PMS_P1;PMS_P2;Temp;Humidity;BMP_temperature;BMP_pressure;BME280_temperature;BME280_humidity;BME280_pressure;Samples;Min_cycle;Max_cycle;Signal;HPM_P1;HPM_P2
2023/05/02 00:00:11;;;;;;;13.88;2.40;;;;;;;;;;5002788;28;20339;-70
2023/05/02 00:02:37;;;;;;;9.40;2.38;;;;;;;;;;4997616;28;20029;-72
2023/05/02 00:05:04;;;;;;;;;;;;;;;;;;5003239;28;20068;-70
2023/05/02 00:07:30;;;;;;;9.93;2.38;;;;;;;;;;5001683;28;19913;-70
2023/05/02 00:09:56;;;;;;;8.88;2.08;;;;;;;;;;5002641;28;20046;-70
2023/05/02 00:12:22;;;;;;;;;;;;;;;;;;5001145;28;20076;-70
2023/05/02 00:14:48;;;;;;;10.45;2.40;;;;;;;;;;4996488;28;19917;-70
2023/05/02 00:17:14;;;;;;;;;;;;;;;;;;5014046;28;20431;-69
2023/05/02 00:19:40;;;;;;;10.15;2.40;;;;;;;;;;5013623;28;19920;-72
2023/05/02 00:22:06;;;;;;;;;;;;;;;;;;5005396;28;20055;-71
2023/05/02 00:24:32;;;;;;;11.15;2.60;;;;;;;;;;5014548;28;19913;-71
2023/05/02 00:26:58;;;;;;;;;;;;;;;;;;5003120;28;20021;-71
2023/05/02 00:29:24;;;;;;;11.25;2.35;;;;;;;;;;5010949;28;19913;-70
2023/05/02 00:31:50;;;;;;;;;;;;;;;;;;5015238;28;20877;-70
2023/05/02 00:34:17;;;;;;;11.52;2.50;;;;;;;;;;5015868;28;19966;-70
2023/05/02 00:36:43;;;;;;;;;;;;;;;;;;5016155;28;20029;-70
2023/05/02 00:39:09;;;;;;;11.60;2.30;;;;;;;;;;5015908;28;19924;-70
2023/05/02 00:41:35;;;;;;;9.05;2.35;;;;;;;;;;5012622;28;20029;-70
2023/05/02 00:44:01;;;;;;;;;;;;;;;;;;5011848;28;20119;-70
2023/05/02 00:46:27;;;;;;;9.52;2.50;;;;;;;;;;5002960;28;19919;-70
2023/05/02 00:48:53;;;;;;;;;;;;;;;;;;5016123;28;20448;-70
2023/05/02 00:51:20;;;;;;;11.35;2.47;;;;;;;;;;5023064;28;20371;-70
2023/05/02 00:53:46;;;;;;;8.45;2.30;;;;;;;;;;5000081;28;20441;-70
2023/05/02 00:56:12;;;;;;;10.57;2.80;;;;;;;;;;5016886;28;20041;-70
2023/05/02 00:58:40;;;;;;;11.18;2.38;;;;;;;;;;5014443;28;20768;-70
2023/05/02 01:01:12;;;;;;;13.20;2.60;;;;;;;;;;5000956;28;20515;-70
2023/05/02 01:03:39;;;;;;;10.45;2.58;;;;;;;;;;5018000;28;20032;-70
2023/05/02 01:06:28;;;;;;;9.48;2.70;;;;;;;;;;5017195;28;20029;-70
2023/05/02 01:08:54;;;;;;;10.52;2.65;;;;;;;;;;5006909;28;20037;-70
2023/05/02 01:11:28;;;;;;;10.57;2.58;;;;;;;;;;5021160;28;20083;-70
2023/05/02 01:13:55;;;;;;;11.75;2.75;;;;;;;;;;4996563;28;20368;-70
2023/05/02 01:16:23;;;;;;;11.15;2.20;;;;;;;;;;5019839;28;20150;-70
2023/05/02 01:18:50;;;;;;;14.25;2.85;;;;;;;;;;5000908;28;20049;-70
2023/05/02 01:21:16;;;;;;;12.52;2.75;;;;;;;;;;5019268;28;20140;-70
2023/05/02 01:23:42;;;;;;;;;;;;;;;;;;5013714;28;20033;-70
2023/05/02 01:26:23;;;;;;;8.93;2.50;;;;;;;;;;5020233;28;19920;-70
2023/05/02 01:29:09;;;;;;;12.57;2.55;;;;;;;;;;5017195;28;20584;-70
2023/05/02 01:31:36;;;;;;;9.85;2.40;;;;;;;;;;5016660;28;20477;-69
2023/05/02 01:34:04;;;;;;;9.07;2.22;;;;;;;;;;5002973;28;20029;-69
2023/05/02 01:36:32;;;;;;;10.73;2.50;;;;;;;;;;5018503;28;20033;-70
2023/05/02 01:39:00;;;;;;;10.05;2.30;;;;;;;;;;5015533;28;20025;-70
2023/05/02 01:41:26;;;;;;;11.40;2.28;;;;;;;;;;5002522;28;20045;-69
2023/05/02 01:43:57;;;;;;;9.43;2.15;;;;;;;;;;5011280;28;20025;-69
2023/05/02 01:46:26;;;;;;;11.88;2.88;;;;;;;;;;5017606;28;20620;-69
2023/05/02 01:48:52;;;;;;;14.25;2.90;;;;;;;;;;5011590;28;20086;-69
2023/05/02 01:51:20;;;;;;;10.57;2.20;;;;;;;;;;5016652;28;20488;-70
2023/05/02 01:53:49;;;;;;;13.05;2.42;;;;;;;;;;5018490;28;20105;-70
2023/05/02 01:56:17;;;;;;;9.88;2.28;;;;;;;;;;4999764;28;20033;-70
2023/05/02 01:58:44;;;;;;;11.02;2.72;;;;;;;;;;5004910;28;20025;-70
2023/05/02 02:01:11;;;;;;;11.60;2.65;;;;;;;;;;5019914;28;20029;-70
2023/05/02 02:03:37;;;;;;;9.93;2.35;;;;;;;;;;4996718;28;20025;-70
2023/05/02 02:06:05;;;;;;;10.25;2.92;;;;;;;;;;5004701;28;20036;-69
2023/05/02 02:08:31;;;;;;;10.00;2.22;;;;;;;;;;5001971;28;20884;-69
2023/05/02 02:10:57;;;;;;;;;;;;;;;;;;5017379;28;20573;-69
2023/05/02 02:13:27;;;;;;;9.25;2.47;;;;;;;;;;5017659;28;19918;-70
2023/05/02 02:15:57;;;;;;;9.80;2.45;;;;;;;;;;5014623;28;20316;-70
2023/05/02 02:18:25;;;;;;;10.98;2.70;;;;;;;;;;5001589;28;20049;-70
2023/05/02 02:20:52;;;;;;;10.65;2.47;;;;;;;;;;5014117;28;20467;-70
2023/05/02 02:23:20;;;;;;;9.18;2.40;;;;;;;;;;5003484;28;20033;-70
2023/05/02 02:25:46;;;;;;;9.75;2.35;;;;;;;;;;5015519;28;20043;-70
2023/05/02 02:28:12;;;;;;;;;;;;;;;;;;5005198;28;20716;-69
2023/05/02 02:30:38;;;;;;;10.82;2.42;;;;;;;;;;5013298;28;19920;-70
2023/05/02 02:33:05;;;;;;;12.50;3.25;;;;;;;;;;5016400;28;20025;-70
2023/05/02 02:35:33;;;;;;;10.60;2.85;;;;;;;;;;5013413;28;20094;-69
2023/05/02 02:38:08;;;;;;;11.23;3.92;;;;;;;;;;5024000;28;20381;-69
2023/05/02 02:40:38;;;;;;;12.98;4.30;;;;;;;;;;5015698;28;20029;-69
2023/05/02 02:43:16;;;;;;;14.95;4.32;;;;;;;;;;5017034;28;20130;-70
2023/05/02 02:46:03;;;;;;;9.60;3.08;;;;;;;;;;4999770;28;20536;-69
2023/05/02 02:48:43;;;;;;;10.00;2.58;;;;;;;;;;5002260;28;20033;-69
2023/05/02 02:51:12;;;;;;;10.60;2.67;;;;;;;;;;5015113;28;20049;-69
2023/05/02 02:53:45;;;;;;;10.30;2.30;;;;;;;;;;5014940;28;20194;-69
2023/05/02 02:56:14;;;;;;;10.73;2.42;;;;;;;;;;5016200;28;20033;-69
2023/05/02 02:58:59;;;;;;;9.32;2.67;;;;;;;;;;5010746;28;20192;-69
2023/05/02 03:01:27;;;;;;;10.20;2.78;;;;;;;;;;5015103;28;20049;-70
2023/05/02 03:03:54;;;;;;;9.15;2.55;;;;;;;;;;5016458;28;20029;-70
2023/05/02 03:06:21;;;;;;;9.90;2.50;;;;;;;;;;4999088;28;20600;-70
2023/05/02 03:08:47;;;;;;;;;;;;;;;;;;5017982;28;20073;-70
2023/05/02 03:11:13;;;;;;;11.32;2.58;;;;;;;;;;5016073;28;20185;-70
2023/05/02 03:13:39;;;;;;;;;;;;;;;;;;4997978;28;20151;-70
2023/05/02 03:16:23;;;;;;;11.00;2.60;;;;;;;;;;5016428;28;19916;-72
2023/05/02 03:18:50;;;;;;;11.25;2.50;;;;;;;;;;5011790;28;20185;-70
2023/05/02 03:21:16;;;;;;;10.10;2.30;;;;;;;;;;5010827;28;20052;-70
2023/05/02 03:23:42;;;;;;;;;;;;;;;;;;5013414;28;20114;-70
2023/05/02 03:26:08;;;;;;;12.88;2.67;;;;;;;;;;5018934;28;19912;-70
2023/05/02 03:28:34;;;;;;;9.35;2.13;;;;;;;;;;5016621;28;20041;-70
2023/05/02 03:31:01;;;;;;;10.75;2.25;;;;;;;;;;5019034;28;20111;-69
2023/05/02 03:33:27;;;;;;;11.35;2.80;;;;;;;;;;5001479;28;20037;-70
2023/05/02 03:35:53;;;;;;;8.68;2.05;;;;;;;;;;5012058;28;20057;-69
2023/05/02 03:38:19;;;;;;;;;;;;;;;;;;5017917;28;20136;-69
2023/05/02 03:40:45;;;;;;;14.32;2.80;;;;;;;;;;4996170;28;20267;-70
2023/05/02 03:43:11;;;;;;;;;;;;;;;;;;5017870;28;20031;-70
2023/05/02 03:45:37;;;;;;;8.95;2.15;;;;;;;;;;5015142;28;19913;-70
2023/05/02 03:48:03;;;;;;;;;;;;;;;;;;5012009;28;20115;-70
2023/05/02 03:50:29;;;;;;;9.90;2.50;;;;;;;;;;5014145;28;20018;-70
2023/05/02 03:52:56;;;;;;;;;;;;;;;;;;5013116;28;20025;-70
2023/05/02 03:55:22;;;;;;;13.60;2.35;;;;;;;;;;5015556;28;19927;-70
2023/05/02 03:57:48;;;;;;;8.93;2.25;;;;;;;;;;5014113;28;20029;-69
2023/05/02 04:00:14;;;;;;;10.88;2.30;;;;;;;;;;5018061;28;20497;-70
2023/05/02 04:02:40;;;;;;;10.75;2.65;;;;;;;;;;5016647;28;20033;-70
2023/05/02 04:05:07;;;;;;;8.07;2.25;;;;;;;;;;5016911;28;20044;-69
2023/05/02 04:07:34;;;;;;;9.40;2.35;;;;;;;;;;5000790;28;20036;-70
2023/05/02 04:10:00;;;;;;;8.02;2.03;;;;;;;;;;5020658;28;20029;-70
2023/05/02 04:12:26;;;;;;;;;;;;;;;;;;5016184;28;20162;-70
2023/05/02 04:14:53;;;;;;;12.13;3.33;;;;;;;;;;5016105;28;19916;-70
2023/05/02 04:17:20;;;;;;;12.07;3.00;;;;;;;;;;5017339;28;20441;-70
2023/05/02 04:19:46;;;;;;;11.75;3.47;;;;;;;;;;5015315;28;20473;-70
2023/05/02 04:22:12;;;;;;;;;;;;;;;;;;5022039;28;20581;-70
2023/05/02 04:24:38;;;;;;;12.50;3.22;;;;;;;;;;5017778;28;19912;-70
2023/05/02 04:27:04;;;;;;;;;;;;;;;;;;5021987;28;20114;-70
2023/05/02 04:29:31;;;;;;;11.60;3.10;;;;;;;;;;5021436;28;19916;-69
2023/05/02 04:31:56;;;;;;;;;;;;;;;;;;5005427;28;20025;-70
2023/05/02 04:34:23;;;;;;;10.40;2.80;;;;;;;;;;5021808;28;19927;-69
2023/05/02 04:36:49;;;;;;;9.73;2.60;;;;;;;;;;5001852;28;20033;-70
2023/05/02 04:39:15;;;;;;;;;;;;;;;;;;5003723;28;20079;-70
2023/05/02 04:41:41;;;;;;;9.07;2.70;;;;;;;;;;5015302;28;20709;-70
2023/05/02 04:44:08;;;;;;;14.20;5.40;;;;;;;;;;5019890;28;20490;-70
2023/05/02 04:46:34;;;;;;;;;;;;;;;;;;4999863;28;20033;-70
2023/05/02 04:49:00;;;;;;;15.35;6.57;;;;;;;;;;5022608;28;19913;-70
2023/05/02 04:51:27;;;;;;;;;;;;;;;;;;5008636;28;20056;-69
2023/05/02 04:53:54;;;;;;;10.43;3.80;;;;;;;;;;5023275;28;19986;-69
2023/05/02 04:56:20;;;;;;;;;;;;;;;;;;5007403;28;20065;-70
2023/05/02 04:58:46;;;;;;;11.73;3.10;;;;;;;;;;5020087;28;20222;-69
2023/05/02 05:01:12;;;;;;;;;;;;;;;;;;5018588;28;20029;-69
2023/05/02 05:03:38;;;;;;;10.82;2.55;;;;;;;;;;5018244;28;19940;-70
2023/05/02 05:06:05;;;;;;;10.93;2.70;;;;;;;;;;5017240;28;20021;-70
2023/05/02 05:08:31;;;;;;;12.27;2.47;;;;;;;;;;5016470;28;20131;-70
2023/05/02 05:10:57;;;;;;;8.73;2.60;;;;;;;;;;5015914;28;20095;-71
2023/05/02 05:13:24;;;;;;;9.48;2.45;;;;;;;;;;5015460;28;20040;-71
2023/05/02 05:15:50;;;;;;;;;;;;;;;;;;5014954;28;20119;-69
2023/05/02 05:18:16;;;;;;;9.80;2.72;;;;;;;;;;5014741;28;19912;-69
2023/05/02 05:20:43;;;;;;;13.95;2.92;;;;;;;;;;4997554;28;20040;-69
2023/05/02 05:23:09;;;;;;;;;;;;;;;;;;5019851;28;20033;-70
2023/05/02 05:25:35;;;;;;;11.85;2.92;;;;;;;;;;5015694;28;20364;-72
2023/05/02 05:28:01;;;;;;;;;;;;;;;;;;5014145;28;20028;-69
2023/05/02 05:30:29;;;;;;;11.95;2.78;;;;;;;;;;5017322;28;19919;-69
2023/05/02 05:32:55;;;;;;;7.68;2.03;;;;;;;;;;5018086;28;20027;-70
2023/05/02 05:35:22;;;;;;;11.82;2.47;;;;;;;;;;5016589;28;20040;-69
2023/05/02 05:37:48;;;;;;;;;;;;;;;;;;5020356;28;20477;-71
2023/05/02 05:40:14;;;;;;;9.88;2.78;;;;;;;;;;5014261;28;19908;-70
2023/05/02 05:42:40;;;;;;;;;;;;;;;;;;5009261;28;20528;-70
2023/05/02 05:45:06;;;;;;;11.05;3.00;;;;;;;;;;5016546;28;19917;-70
2023/05/02 05:47:32;;;;;;;12.65;3.28;;;;;;;;;;5020812;28;20032;-70
2023/05/02 05:49:58;;;;;;;;;;;;;;;;;;5023147;28;20071;-70
2023/05/02 05:52:24;;;;;;;17.13;5.43;;;;;;;;;;5024195;28;20035;-70
2023/05/02 05:54:50;;;;;;;;;;;;;;;;;;5020936;28;20677;-72
2023/05/02 05:57:16;;;;;;;13.32;4.32;;;;;;;;;;5022044;28;20369;-71
2023/05/02 05:59:42;;;;;;;;;;;;;;;;;;5021217;28;20270;-71
2023/05/02 06:02:09;;;;;;;17.33;5.90;;;;;;;;;;5020473;28;19947;-71
2023/05/02 06:04:35;;;;;;;16.65;3.45;;;;;;;;;;5015036;28;20795;-69
2023/05/02 06:07:01;;;;;;;;;;;;;;;;;;5005027;28;20139;-71
2023/05/02 06:09:27;;;;;;;13.88;2.80;;;;;;;;;;5021888;28;19917;-69
2023/05/02 06:11:53;;;;;;;;;;;;;;;;;;5013334;28;20142;-69
2023/05/02 06:14:19;;;;;;;14.55;3.00;;;;;;;;;;5021149;28;20365;-70
2023/05/02 06:16:45;;;;;;;;;;;;;;;;;;5016627;28;20055;-70
2023/05/02 06:19:11;;;;;;;12.48;2.85;;;;;;;;;;5019144;28;20437;-71
2023/05/02 06:21:38;;;;;;;14.57;3.30;;;;;;;;;;5021196;28;20060;-71
2023/05/02 06:24:04;;;;;;;;;;;;;;;;;;5022551;28;20083;-71
2023/05/02 06:26:30;;;;;;;11.30;3.17;;;;;;;;;;5022271;28;19943;-71
2023/05/02 06:28:56;;;;;;;11.65;2.90;;;;;;;;;;5022340;28;20025;-71
2023/05/02 06:31:22;;;;;;;;;;;;;;;;;;5007212;28;20036;-71
2023/05/02 06:33:48;;;;;;;11.75;2.95;;;;;;;;;;5016104;28;20346;-71
2023/05/02 06:36:14;;;;;;;8.68;2.90;;;;;;;;;;5021487;28;20109;-71
2023/05/02 06:38:40;;;;;;;;;;;;;;;;;;5024069;28;20033;-71
2023/05/02 06:41:13;;;;;;;10.63;3.17;;;;;;;;;;5028197;28;20442;-71
2023/05/02 06:43:39;;;;;;;9.30;2.60;;;;;;;;;;5002839;28;20700;-71
2023/05/02 06:46:05;;;;;;;;;;;;;;;;;;5021964;28;20086;-71
2023/05/02 06:48:31;;;;;;;11.60;2.85;;;;;;;;;;4997055;28;20367;-71
2023/05/02 06:50:57;;;;;;;10.20;2.88;;;;;;;;;;5017485;28;20562;-71
2023/05/02 06:53:23;;;;;;;;;;;;;;;;;;5015754;28;20382;-71
2023/05/02 06:55:49;;;;;;;10.68;2.60;;;;;;;;;;5021610;28;20207;-71
2023/05/02 06:58:16;;;;;;;10.55;2.80;;;;;;;;;;5014815;28;20040;-70
2023/05/02 07:00:42;;;;;;;11.85;2.60;;;;;;;;;;5015884;28;20032;-70
2023/05/02 07:03:09;;;;;;;;;;;;;;;;;;5002589;28;20628;-70
2023/05/02 07:05:36;;;;;;;8.20;2.10;;;;;;;;;;4996517;28;20305;-69
2023/05/02 07:08:02;;;;;;;;;;;;;;;;;;5018340;28;20078;-70
2023/05/02 07:10:28;;;;;;;10.00;2.03;;;;;;;;;;5018345;28;19944;-71
2023/05/02 07:12:54;;;;;;;;;;;;;;;;;;5013501;28;20441;-71
2023/05/02 07:15:20;;;;;;;9.63;2.40;;;;;;;;;;5019468;28;20242;-72
2023/05/02 07:17:46;;;;;;;8.25;1.88;;;;;;;;;;5021333;28;20033;-70
2023/05/02 07:20:13;;;;;;;9.73;2.25;;;;;;;;;;5005500;28;20041;-70
2023/05/02 07:22:39;;;;;;;8.00;2.20;;;;;;;;;;5017761;28;20107;-70
2023/05/02 07:25:05;;;;;;;9.10;2.15;;;;;;;;;;5023305;28;20508;-70
2023/05/02 07:27:32;;;;;;;7.70;1.70;;;;;;;;;;5020926;28;20551;-70
2023/05/02 07:29:57;;;;;;;;;;;;;;;;;;5022063;28;20032;-70
2023/05/02 07:32:25;;;;;;;8.30;2.15;;;;;;;;;;5019463;28;20181;-70
2023/05/02 07:34:55;;;;;;;8.40;2.00;;;;;;;;;;5016785;28;20315;-71
2023/05/02 07:37:22;;;;;;;10.77;2.00;;;;;;;;;;5016133;28;20096;-71
2023/05/02 07:39:48;;;;;;;7.50;1.95;;;;;;;;;;5023192;28;20106;-71
2023/05/02 07:42:14;;;;;;;8.02;2.10;;;;;;;;;;5026198;28;20068;-70
2023/05/02 07:44:40;;;;;;;6.75;1.75;;;;;;;;;;5025804;28;20029;-70
2023/05/02 07:47:07;;;;;;;8.90;2.35;;;;;;;;;;5004615;28;20580;-70
2023/05/02 07:49:33;;;;;;;7.60;2.00;;;;;;;;;;5018720;28;20056;-70
2023/05/02 07:52:00;;;;;;;8.77;2.10;;;;;;;;;;5021107;28;20514;-71
2023/05/02 07:54:26;;;;;;;9.27;1.90;;;;;;;;;;5019886;28;20059;-70
2023/05/02 07:56:52;;;;;;;8.32;1.90;;;;;;;;;;5018565;28;20102;-71
2023/05/02 07:59:19;;;;;;;7.80;1.90;;;;;;;;;;5019602;28;20570;-71
2023/05/02 08:01:45;;;;;;;9.75;1.80;;;;;;;;;;5015555;28;20021;-71
2023/05/02 08:04:11;;;;;;;8.40;1.88;;;;;;;;;;5018826;28;20029;-70
2023/05/02 08:06:37;;;;;;;8.48;1.67;;;;;;;;;;5019720;28;20428;-71
2023/05/02 08:09:04;;;;;;;7.13;1.65;;;;;;;;;;5017215;28;20137;-70
2023/05/02 08:11:30;;;;;;;8.88;1.83;;;;;;;;;;5018318;28;20056;-69
2023/05/02 08:13:56;;;;;;;8.10;1.70;;;;;;;;;;5016986;28;20099;-70
2023/05/02 08:16:22;;;;;;;6.03;1.50;;;;;;;;;;5020019;28;20036;-70
2023/05/02 08:18:48;;;;;;;9.85;1.70;;;;;;;;;;5020835;28;20037;-70
2023/05/02 08:21:14;;;;;;;5.85;1.70;;;;;;;;;;5004442;28;20485;-70
2023/05/02 08:23:41;;;;;;;7.43;1.63;;;;;;;;;;5002737;28;20029;-70
2023/05/02 08:26:07;;;;;;;7.55;1.60;;;;;;;;;;5021434;28;20085;-70
2023/05/02 08:28:33;;;;;;;4.85;1.50;;;;;;;;;;5020162;28;20094;-70
2023/05/02 08:30:59;;;;;;;5.97;1.20;;;;;;;;;;5021390;28;20032;-70
2023/05/02 08:33:26;;;;;;;5.28;1.10;;;;;;;;;;5021597;28;20032;-70
2023/05/02 08:35:52;;;;;;;6.63;1.45;;;;;;;;;;4999683;28;20324;-69
2023/05/02 08:38:18;;;;;;;7.43;1.35;;;;;;;;;;5022489;28;20604;-70
2023/05/02 08:40:44;;;;;;;6.95;1.35;;;;;;;;;;5016459;28;21313;-70
2023/05/02 08:43:11;;;;;;;6.03;1.33;;;;;;;;;;5023908;28;20036;-70
2023/05/02 08:45:42;;;;;;;6.13;1.30;;;;;;;;;;5003550;28;20609;-70
2023/05/02 08:48:12;;;;;;;6.75;1.50;;;;;;;;;;5023864;28;20755;-70
2023/05/02 08:50:42;;;;;;;6.47;1.52;;;;;;;;;;5016668;28;20030;-70
2023/05/02 08:53:10;;;;;;;5.65;1.30;;;;;;;;;;5019218;28;20078;-70
2023/05/02 08:55:38;;;;;;;13.18;1.50;;;;;;;;;;5001977;28;20409;-72
2023/05/02 08:58:05;;;;;;;6.70;1.35;;;;;;;;;;5022479;28;20434;-71
2023/05/02 09:00:32;;;;;;;5.13;1.30;;;;;;;;;;5003855;28;20029;-71
2023/05/02 09:03:05;;;;;;;8.57;1.70;;;;;;;;;;5025724;28;20190;-71
2023/05/02 09:05:33;;;;;;;7.80;2.03;;;;;;;;;;5017209;28;20035;-70
2023/05/02 09:07:59;;;;;;;9.15;1.77;;;;;;;;;;5024826;28;20056;-69
2023/05/02 09:10:28;;;;;;;7.03;1.60;;;;;;;;;;5023532;28;20060;-69
2023/05/02 09:12:54;;;;;;;9.52;1.50;;;;;;;;;;5006519;28;20036;-69
2023/05/02 09:15:20;;;;;;;4.45;1.20;;;;;;;;;;5003544;28;20450;-69
2023/05/02 09:17:47;;;;;;;5.75;1.27;;;;;;;;;;5002846;28;20128;-68
2023/05/02 09:20:14;;;;;;;4.93;1.23;;;;;;;;;;5019087;28;20053;-68
2023/05/02 09:22:50;;;;;;;6.80;1.60;;;;;;;;;;5019662;28;20039;-67
2023/05/02 09:25:16;;;;;;;;;;;;;;;;;;5023356;28;20033;-68
2023/05/02 09:27:53;;;;;;;10.63;1.50;;;;;;;;;;5000532;28;20361;-70
2023/05/02 09:30:20;;;;;;;7.82;1.80;;;;;;;;;;5018494;28;20036;-68
2023/05/02 09:32:47;;;;;;;6.43;1.70;;;;;;;;;;5015053;28;20128;-69
2023/05/02 09:35:22;;;;;;;5.68;1.27;;;;;;;;;;5022289;28;20296;-69
2023/05/02 09:37:48;;;;;;;5.23;1.17;;;;;;;;;;5016426;28;20062;-68
2023/05/02 09:40:14;;;;;;;10.73;1.67;;;;;;;;;;5019975;28;20551;-69
2023/05/02 09:42:40;;;;;;;16.65;1.92;;;;;;;;;;5019022;28;20575;-69
2023/05/02 09:45:07;;;;;;;10.38;1.70;;;;;;;;;;5004954;28;20206;-68
2023/05/02 09:47:33;;;;;;;11.00;2.17;;;;;;;;;;5016917;28;20546;-68
2023/05/02 09:49:59;;;;;;;11.43;1.80;;;;;;;;;;5022788;28;20037;-67
2023/05/02 09:52:26;;;;;;;9.32;1.73;;;;;;;;;;5017491;28;20155;-69
2023/05/02 09:54:52;;;;;;;7.30;1.70;;;;;;;;;;5015194;28;20036;-70
2023/05/02 09:57:18;;;;;;;6.15;1.48;;;;;;;;;;5025479;28;20135;-69
2023/05/02 09:59:54;;;;;;;7.30;1.40;;;;;;;;;;5011499;28;20060;-68
2023/05/02 10:02:21;;;;;;;9.90;2.10;;;;;;;;;;5019501;28;20013;-68
2023/05/02 10:04:48;;;;;;;8.82;1.90;;;;;;;;;;5017905;28;20095;-69
2023/05/02 10:07:14;;;;;;;10.98;1.98;;;;;;;;;;5024541;28;20630;-68
2023/05/02 10:09:44;;;;;;;14.40;1.85;;;;;;;;;;5016150;28;20683;-69
2023/05/02 10:12:13;;;;;;;12.57;1.80;;;;;;;;;;5020318;28;20037;-68
2023/05/02 10:14:40;;;;;;;10.77;1.52;;;;;;;;;;5015683;28;20444;-70
2023/05/02 10:17:15;;;;;;;6.70;1.58;;;;;;;;;;5019730;28;20287;-70
2023/05/02 10:19:41;;;;;;;6.45;1.45;;;;;;;;;;5014802;28;20498;-69
2023/05/02 10:22:08;;;;;;;7.55;1.50;;;;;;;;;;5018149;28;20438;-69
2023/05/02 10:24:34;;;;;;;12.25;1.80;;;;;;;;;;5017772;28;20944;-69
2023/05/02 10:27:01;;;;;;;11.65;1.60;;;;;;;;;;5012962;28;20021;-70
2023/05/02 10:29:31;;;;;;;7.45;1.30;;;;;;;;;;5017074;28;20039;-67
2023/05/02 10:31:57;;;;;;;5.68;1.25;;;;;;;;;;5013812;28;20082;-68
2023/05/02 10:34:24;;;;;;;9.70;1.60;;;;;;;;;;5004409;28;20029;-67
2023/05/02 10:36:50;;;;;;;7.15;1.63;;;;;;;;;;5012828;28;25613;-68
2023/05/02 10:39:18;;;;;;;6.30;1.33;;;;;;;;;;5017093;28;20507;-68
2023/05/02 10:41:44;;;;;;;8.90;1.60;;;;;;;;;;5006184;28;20101;-67
2023/05/02 10:44:11;;;;;;;8.50;1.30;;;;;;;;;;5020452;28;20227;-68
2023/05/02 10:46:37;;;;;;;5.63;1.20;;;;;;;;;;5018321;28;20040;-67
2023/05/02 10:49:07;;;;;;;4.45;0.95;;;;;;;;;;5018200;28;20060;-68
2023/05/02 10:51:33;;;;;;;5.05;1.17;;;;;;;;;;5010693;28;20505;-71
2023/05/02 10:54:18;;;;;;;6.05;1.27;;;;;;;;;;5002911;28;20033;-68
2023/05/02 10:57:06;;;;;;;6.78;1.42;;;;;;;;;;5012054;28;20569;-70
2023/05/02 10:59:36;;;;;;;7.55;1.42;;;;;;;;;;5017076;28;20032;-68
2023/05/02 11:02:03;;;;;;;6.25;1.15;;;;;;;;;;5023021;28;20028;-69
2023/05/02 11:04:47;;;;;;;5.32;1.10;;;;;;;;;;5001090;28;20433;-68
2023/05/02 11:07:14;;;;;;;5.28;1.23;;;;;;;;;;5019942;28;20037;-68
2023/05/02 11:09:40;;;;;;;6.30;1.17;;;;;;;;;;5023816;28;20429;-68
2023/05/02 11:12:07;;;;;;;5.95;1.10;;;;;;;;;;4995732;28;20030;-69
2023/05/02 11:14:40;;;;;;;7.95;1.48;;;;;;;;;;5012504;28;20446;-68
2023/05/02 11:17:07;;;;;;;6.88;1.50;;;;;;;;;;5023905;28;20025;-68
2023/05/02 11:19:36;;;;;;;7.03;1.27;;;;;;;;;;5001565;28;20087;-68
2023/05/02 11:22:18;;;;;;;7.07;1.48;;;;;;;;;;5005922;28;20021;-68
2023/05/02 11:24:49;;;;;;;6.20;1.45;;;;;;;;;;5004039;28;20032;-67
2023/05/02 11:27:36;;;;;;;8.35;1.40;;;;;;;;;;5020489;28;20035;-68
2023/05/02 11:30:07;;;;;;;8.95;1.48;;;;;;;;;;4997964;28;20483;-67
2023/05/02 11:32:47;;;;;;;6.25;1.27;;;;;;;;;;5014888;28;20059;-67
2023/05/02 11:35:20;;;;;;;7.85;1.30;;;;;;;;;;5020084;28;20037;-67
2023/05/02 11:37:56;;;;;;;10.02;1.50;;;;;;;;;;5011692;28;20174;-68
2023/05/02 11:40:23;;;;;;;7.30;1.88;;;;;;;;;;5016051;28;20033;-70
2023/05/02 11:42:49;;;;;;;10.45;1.80;;;;;;;;;;5017751;28;20529;-67
2023/05/02 11:45:15;;;;;;;9.40;1.88;;;;;;;;;;5021236;28;20095;-68
2023/05/02 11:47:42;;;;;;;8.52;1.50;;;;;;;;;;5002175;28;20374;-68
2023/05/02 11:50:08;;;;;;;7.25;1.60;;;;;;;;;;5002341;28;20033;-67
2023/05/02 11:52:41;;;;;;;5.95;1.48;;;;;;;;;;5018000;28;20169;-70
2023/05/02 11:55:08;;;;;;;7.22;1.27;;;;;;;;;;5020400;28;20036;-67
2023/05/02 11:57:34;;;;;;;7.97;1.77;;;;;;;;;;5022413;28;20357;-67
2023/05/02 12:00:01;;;;;;;6.53;1.50;;;;;;;;;;5017955;28;20033;-67
2023/05/02 12:02:36;;;;;;;7.20;1.70;;;;;;;;;;5018360;28;20544;-67
2023/05/02 12:05:07;;;;;;;7.50;1.40;;;;;;;;;;5016947;28;20037;-69
2023/05/02 12:07:40;;;;;;;8.23;1.70;;;;;;;;;;5000090;28;20356;-68
2023/05/02 12:10:07;;;;;;;6.30;1.50;;;;;;;;;;5022054;28;20470;-70
2023/05/02 12:12:33;;;;;;;6.07;1.63;;;;;;;;;;5020255;28;20410;-67
2023/05/02 12:15:10;;;;;;;8.13;2.45;;;;;;;;;;5019875;28;20044;-68
2023/05/02 12:17:44;;;;;;;8.25;2.00;;;;;;;;;;5003607;28;20921;-67
2023/05/02 12:20:11;;;;;;;9.77;1.98;;;;;;;;;;5015077;28;20191;-69
2023/05/02 12:22:37;;;;;;;8.13;1.70;;;;;;;;;;4996186;28;20022;-70
2023/05/02 12:25:07;;;;;;;7.68;1.60;;;;;;;;;;5004074;28;20030;-69
2023/05/02 12:27:34;;;;;;;8.52;1.48;;;;;;;;;;5000867;28;20041;-68
2023/05/02 12:30:00;;;;;;;8.98;1.77;;;;;;;;;;5003738;28;20356;-69
2023/05/02 12:32:30;;;;;;;7.63;1.45;;;;;;;;;;5006462;28;20045;-68
2023/05/02 12:34:57;;;;;;;9.15;1.65;;;;;;;;;;5009109;28;20029;-70
2023/05/02 12:37:24;;;;;;;9.20;1.80;;;;;;;;;;5006144;28;20053;-69
2023/05/02 12:39:51;;;;;;;9.80;1.60;;;;;;;;;;5001756;28;20029;-69
2023/05/02 12:42:20;;;;;;;8.13;1.48;;;;;;;;;;5006812;28;20028;-68
2023/05/02 12:44:47;;;;;;;9.20;1.50;;;;;;;;;;5002238;28;20052;-68
2023/05/02 12:47:15;;;;;;;7.10;1.60;;;;;;;;;;5004533;28;20353;-67
2023/05/02 12:49:50;;;;;;;6.88;1.40;;;;;;;;;;4999787;28;20075;-70
2023/05/02 12:52:16;;;;;;;;;;;;;;;;;;5005178;28;20068;-70
2023/05/02 12:54:42;;;;;;;9.77;1.90;;;;;;;;;;5000251;28;19924;-69
2023/05/02 12:57:08;;;;;;;9.43;1.73;;;;;;;;;;5001695;28;20083;-70
2023/05/02 12:59:34;;;;;;;9.23;1.77;;;;;;;;;;4997893;28;20029;-68
2023/05/02 13:02:00;;;;;;;7.78;1.73;;;;;;;;;;5002338;28;20049;-68
2023/05/02 13:04:34;;;;;;;7.50;1.80;;;;;;;;;;5000092;28;20574;-68
2023/05/02 13:07:00;;;;;;;7.25;1.52;;;;;;;;;;5004623;28;20029;-69
2023/05/02 13:09:26;;;;;;;7.60;1.40;;;;;;;;;;5004776;28;20033;-70
2023/05/02 13:11:53;;;;;;;7.40;1.30;;;;;;;;;;5000353;28;20049;-69
2023/05/02 13:14:19;;;;;;;7.82;1.75;;;;;;;;;;5000252;28;20555;-69
2023/05/02 13:16:45;;;;;;;7.55;1.65;;;;;;;;;;5002915;28;20029;-69
2023/05/02 13:19:11;;;;;;;6.97;1.85;;;;;;;;;;5011912;28;20043;-69
2023/05/02 13:21:37;;;;;;;5.70;1.30;;;;;;;;;;5023982;28;20612;-67
2023/05/02 13:24:04;;;;;;;8.50;1.73;;;;;;;;;;5006045;28;20024;-67
2023/05/02 13:26:30;;;;;;;6.55;1.60;;;;;;;;;;5020593;28;20476;-68
2023/05/02 13:28:56;;;;;;;7.65;1.70;;;;;;;;;;5022149;28;20424;-69
2023/05/02 13:31:22;;;;;;;6.97;1.40;;;;;;;;;;5007663;28;20033;-68
2023/05/02 13:33:48;;;;;;;8.05;1.38;;;;;;;;;;5022948;28;20108;-69
2023/05/02 13:36:15;;;;;;;6.53;1.05;;;;;;;;;;5022957;28;20231;-67
2023/05/02 13:38:41;;;;;;;6.50;1.40;;;;;;;;;;5021255;28;20047;-68
2023/05/02 13:41:07;;;;;;;8.52;1.60;;;;;;;;;;5026904;28;20619;-68
2023/05/02 13:43:33;;;;;;;7.95;1.70;;;;;;;;;;5019193;28;20559;-68
2023/05/02 13:45:59;;;;;;;6.63;1.63;;;;;;;;;;5025118;28;20110;-71
2023/05/02 13:48:25;;;;;;;6.10;1.40;;;;;;;;;;5006077;28;20021;-70
2023/05/02 13:50:51;;;;;;;6.15;1.58;;;;;;;;;;5005130;28;20271;-68
2023/05/02 13:53:18;;;;;;;6.47;1.58;;;;;;;;;;5004689;28;20035;-69
2023/05/02 13:55:44;;;;;;;5.65;1.48;;;;;;;;;;5020576;28;20048;-68
2023/05/02 13:58:10;;;;;;;5.80;1.40;;;;;;;;;;5022124;28;20092;-68
2023/05/02 14:00:36;;;;;;;5.68;1.30;;;;;;;;;;5022442;28;20036;-68
2023/05/02 14:03:03;;;;;;;5.85;1.50;;;;;;;;;;5005730;28;20033;-71
2023/05/02 14:05:30;;;;;;;7.40;1.48;;;;;;;;;;5005337;28;20045;-70
2023/05/02 14:07:56;;;;;;;7.07;1.65;;;;;;;;;;5003754;28;20056;-69
2023/05/02 14:10:22;;;;;;;9.27;1.73;;;;;;;;;;5020141;28;20515;-69
2023/05/02 14:12:48;;;;;;;7.00;1.65;;;;;;;;;;5002946;28;20029;-73
2023/05/02 14:15:14;;;;;;;7.90;1.48;;;;;;;;;;5021047;28;20550;-69
2023/05/02 14:17:40;;;;;;;6.63;1.55;;;;;;;;;;5022073;28;20668;-70
2023/05/02 14:20:09;;;;;;;6.82;1.20;;;;;;;;;;5022674;28;20313;-71
2023/05/02 14:22:35;;;;;;;6.47;1.42;;;;;;;;;;5017283;28;20512;-68
2023/05/02 14:25:01;;;;;;;7.28;1.38;;;;;;;;;;5018936;28;20033;-71
2023/05/02 14:27:27;;;;;;;5.80;1.25;;;;;;;;;;5008331;28;20047;-69
2023/05/02 14:29:53;;;;;;;7.38;1.33;;;;;;;;;;5004066;28;20072;-67
2023/05/02 14:32:20;;;;;;;7.75;1.45;;;;;;;;;;5024037;28;20048;-67
2023/05/02 14:34:46;;;;;;;8.05;1.42;;;;;;;;;;5018149;28;20179;-67
2023/05/02 14:37:12;;;;;;;7.55;1.60;;;;;;;;;;5019587;28;20114;-68
2023/05/02 14:39:41;;;;;;;5.82;1.33;;;;;;;;;;5018581;28;20047;-69
2023/05/02 14:42:07;;;;;;;9.88;1.50;;;;;;;;;;5016131;28;20131;-69
2023/05/02 14:44:33;;;;;;;7.88;1.40;;;;;;;;;;5017601;28;20044;-67
2023/05/02 14:46:59;;;;;;;7.95;1.50;;;;;;;;;;5004204;28;20091;-68
2023/05/02 14:49:26;;;;;;;7.93;1.40;;;;;;;;;;5021852;28;20059;-68
2023/05/02 14:51:52;;;;;;;7.30;1.52;;;;;;;;;;5016780;28;20027;-68
2023/05/02 14:54:19;;;;;;;7.30;1.90;;;;;;;;;;5020733;28;20502;-68